sensor_id;sensor_type;location;lat;lon;timestamp;P1;durP1;ratioP1;P2;durP2;ratioP2
14923;SDS011;7554;43.600;1.480;2023-12-20T00:00:34;21.27;;;16.73;;
14923;SDS011;7554;43.600;1.480;2023-12-20T00:03:02;24.73;;;17.17;;
14923;SDS011;7554;43.600;1.480;2023-12-20T00:05:30;21.83;;;16.77;;
14923;SDS011;7554;43.600;1.480;2023-12-20T00:07:58;21.40;;;17.50;;
14923;SDS011;7554;43.600;1.480;2023-12-20T00:10:25;23.90;;;16.97;;
14923;SDS011;7554;43.600;1.480;2023-12-20T00:12:54;20.80;;;16.03;;
14923;SDS011;7554;43.600;1.480;2023-12-20T00:15:22;21.80;;;15.97;;
14923;SDS011;7554;43.600;1.480;2023-12-20T00:17:49;21.83;;;16.53;;
14923;SDS011;7554;43.600;1.480;2023-12-20T00:20:16;18.47;;;15.50;;
14923;SDS011;7554;43.600;1.480;2023-12-20T00:22:44;18.73;;;15.73;;
14923;SDS011;7554;43.600;1.480;2023-12-20T00:25:11;22.27;;;15.37;;
14923;SDS011;7554;43.600;1.480;2023-12-20T00:27:39;20.30;;;16.03;;
14923;SDS011;7554;43.600;1.480;2023-12-20T00:30:08;19.53;;;15.50;;
14923;SDS011;7554;43.600;1.480;2023-12-20T00:32:36;20.00;;;15.37;;
14923;SDS011;7554;43.600;1.480;2023-12-20T00:35:04;18.77;;;15.27;;
14923;SDS011;7554;43.600;1.480;2023-12-20T00:37:32;21.03;;;15.73;;
14923;SDS011;7554;43.600;1.480;2023-12-20T00:39:59;20.33;;;15.20;;
14923;SDS011;7554;43.600;1.480;2023-12-20T00:42:27;19.57;;;15.27;;
14923;SDS011;7554;43.600;1.480;2023-12-20T00:44:55;20.37;;;15.83;;
14923;SDS011;7554;43.600;1.480;2023-12-20T00:47:23;20.73;;;14.80;;
14923;SDS011;7554;43.600;1.480;2023-12-20T00:49:51;23.50;;;15.57;;
14923;SDS011;7554;43.600;1.480;2023-12-20T00:52:18;20.17;;;15.23;;
14923;SDS011;7554;43.600;1.480;2023-12-20T00:54:48;19.77;;;16.20;;
14923;SDS011;7554;43.600;1.480;2023-12-20T00:57:15;21.03;;;16.47;;
14923;SDS011;7554;43.600;1.480;2023-12-20T00:59:42;20.13;;;16.40;;
14923;SDS011;7554;43.600;1.480;2023-12-20T01:02:09;19.70;;;15.33;;
14923;SDS011;7554;43.600;1.480;2023-12-20T01:04:38;24.03;;;17.10;;
14923;SDS011;7554;43.600;1.480;2023-12-20T01:07:05;19.57;;;16.13;;
14923;SDS011;7554;43.600;1.480;2023-12-20T01:09:33;18.77;;;16.13;;
14923;SDS011;7554;43.600;1.480;2023-12-20T01:12:00;23.10;;;15.90;;
14923;SDS011;7554;43.600;1.480;2023-12-20T01:14:27;20.00;;;14.90;;
14923;SDS011;7554;43.600;1.480;2023-12-20T01:16:55;19.33;;;15.83;;
14923;SDS011;7554;43.600;1.480;2023-12-20T01:19:22;19.80;;;15.33;;
14923;SDS011;7554;43.600;1.480;2023-12-20T01:21:53;21.37;;;15.50;;
14923;SDS011;7554;43.600;1.480;2023-12-20T01:24:20;18.93;;;14.87;;
14923;SDS011;7554;43.600;1.480;2023-12-20T01:26:48;20.27;;;15.00;;
14923;SDS011;7554;43.600;1.480;2023-12-20T01:29:15;18.37;;;15.10;;
14923;SDS011;7554;43.600;1.480;2023-12-20T01:31:43;19.20;;;14.70;;
14923;SDS011;7554;43.600;1.480;2023-12-20T01:34:10;18.47;;;14.67;;
14923;SDS011;7554;43.600;1.480;2023-12-20T01:36:37;19.27;;;14.90;;
14923;SDS011;7554;43.600;1.480;2023-12-20T01:39:06;20.23;;;15.53;;
14923;SDS011;7554;43.600;1.480;2023-12-20T01:41:33;16.80;;;14.60;;
14923;SDS011;7554;43.600;1.480;2023-12-20T01:44:00;17.27;;;14.40;;
14923;SDS011;7554;43.600;1.480;2023-12-20T01:46:28;18.83;;;14.77;;
14923;SDS011;7554;43.600;1.480;2023-12-20T01:48:55;17.53;;;14.53;;
14923;SDS011;7554;43.600;1.480;2023-12-20T01:51:23;19.93;;;14.60;;
14923;SDS011;7554;43.600;1.480;2023-12-20T01:53:52;19.30;;;14.70;;
14923;SDS011;7554;43.600;1.480;2023-12-20T01:56:22;18.07;;;14.63;;
14923;SDS011;7554;43.600;1.480;2023-12-20T01:58:49;17.73;;;14.13;;
14923;SDS011;7554;43.600;1.480;2023-12-20T02:01:17;20.10;;;14.03;;
14923;SDS011;7554;43.600;1.480;2023-12-20T02:03:44;17.80;;;14.47;;
14923;SDS011;7554;43.600;1.480;2023-12-20T02:06:12;18.57;;;14.57;;
14923;SDS011;7554;43.600;1.480;2023-12-20T02:08:39;18.13;;;13.77;;
14923;SDS011;7554;43.600;1.480;2023-12-20T02:11:07;17.03;;;13.77;;
14923;SDS011;7554;43.600;1.480;2023-12-20T02:13:35;17.37;;;13.33;;
14923;SDS011;7554;43.600;1.480;2023-12-20T02:16:02;17.43;;;13.67;;
14923;SDS011;7554;43.600;1.480;2023-12-20T02:18:30;16.00;;;14.30;;
14923;SDS011;7554;43.600;1.480;2023-12-20T02:20:58;17.13;;;14.30;;
14923;SDS011;7554;43.600;1.480;2023-12-20T02:23:26;15.03;;;13.07;;
14923;SDS011;7554;43.600;1.480;2023-12-20T02:25:54;20.53;;;13.80;;
14923;SDS011;7554;43.600;1.480;2023-12-20T02:28:21;18.50;;;13.47;;
14923;SDS011;7554;43.600;1.480;2023-12-20T02:30:49;14.43;;;12.70;;
14923;SDS011;7554;43.600;1.480;2023-12-20T02:33:16;15.40;;;13.20;;
14923;SDS011;7554;43.600;1.480;2023-12-20T02:35:43;16.93;;;13.03;;
14923;SDS011;7554;43.600;1.480;2023-12-20T02:38:10;16.73;;;13.17;;
14923;SDS011;7554;43.600;1.480;2023-12-20T02:40:39;20.03;;;13.00;;
14923;SDS011;7554;43.600;1.480;2023-12-20T02:43:07;17.27;;;13.57;;
14923;SDS011;7554;43.600;1.480;2023-12-20T02:45:34;18.27;;;14.23;;
14923;SDS011;7554;43.600;1.480;2023-12-20T02:48:01;15.73;;;13.50;;
14923;SDS011;7554;43.600;1.480;2023-12-20T02:50:29;19.87;;;13.57;;
14923;SDS011;7554;43.600;1.480;2023-12-20T02:52:56;16.83;;;14.00;;
14923;SDS011;7554;43.600;1.480;2023-12-20T02:55:23;16.40;;;13.57;;
14923;SDS011;7554;43.600;1.480;2023-12-20T02:57:52;14.30;;;12.80;;
14923;SDS011;7554;43.600;1.480;2023-12-20T03:00:19;15.23;;;13.13;;
14923;SDS011;7554;43.600;1.480;2023-12-20T03:02:46;15.53;;;12.50;;
14923;SDS011;7554;43.600;1.480;2023-12-20T03:05:14;14.90;;;13.13;;
14923;SDS011;7554;43.600;1.480;2023-12-20T03:07:41;15.23;;;12.73;;
14923;SDS011;7554;43.600;1.480;2023-12-20T03:10:09;13.97;;;12.50;;
14923;SDS011;7554;43.600;1.480;2023-12-20T03:12:36;15.37;;;12.77;;
14923;SDS011;7554;43.600;1.480;2023-12-20T03:15:05;14.87;;;12.63;;
14923;SDS011;7554;43.600;1.480;2023-12-20T03:17:33;15.57;;;12.83;;
14923;SDS011;7554;43.600;1.480;2023-12-20T03:20:00;14.43;;;12.80;;
14923;SDS011;7554;43.600;1.480;2023-12-20T03:22:28;15.03;;;12.93;;
14923;SDS011;7554;43.600;1.480;2023-12-20T03:24:55;15.57;;;13.20;;
14923;SDS011;7554;43.600;1.480;2023-12-20T03:27:22;16.60;;;13.77;;
14923;SDS011;7554;43.600;1.480;2023-12-20T03:29:50;16.40;;;13.57;;
14923;SDS011;7554;43.600;1.480;2023-12-20T03:32:18;17.93;;;13.77;;
14923;SDS011;7554;43.600;1.480;2023-12-20T03:34:46;17.27;;;13.83;;
14923;SDS011;7554;43.600;1.480;2023-12-20T03:37:13;16.27;;;13.97;;
14923;SDS011;7554;43.600;1.480;2023-12-20T03:39:40;18.57;;;14.43;;
14923;SDS011;7554;43.600;1.480;2023-12-20T03:42:08;17.00;;;14.60;;
14923;SDS011;7554;43.600;1.480;2023-12-20T03:44:38;17.80;;;15.40;;
14923;SDS011;7554;43.600;1.480;2023-12-20T03:47:05;17.87;;;15.17;;
14923;SDS011;7554;43.600;1.480;2023-12-20T03:49:34;17.73;;;14.90;;
14923;SDS011;7554;43.600;1.480;2023-12-20T03:52:02;19.30;;;15.80;;
14923;SDS011;7554;43.600;1.480;2023-12-20T03:54:30;15.87;;;14.23;;
14923;SDS011;7554;43.600;1.480;2023-12-20T03:56:57;16.73;;;14.70;;
14923;SDS011;7554;43.600;1.480;2023-12-20T03:59:24;17.27;;;14.97;;
14923;SDS011;7554;43.600;1.480;2023-12-20T04:01:52;17.17;;;14.67;;
14923;SDS011;7554;43.600;1.480;2023-12-20T04:04:19;15.97;;;14.27;;
14923;SDS011;7554;43.600;1.480;2023-12-20T04:06:48;16.23;;;14.03;;
14923;SDS011;7554;43.600;1.480;2023-12-20T04:09:15;15.93;;;13.83;;
14923;SDS011;7554;43.600;1.480;2023-12-20T04:11:42;15.70;;;13.77;;
14923;SDS011;7554;43.600;1.480;2023-12-20T04:14:09;15.37;;;13.60;;
14923;SDS011;7554;43.600;1.480;2023-12-20T04:16:37;16.30;;;13.80;;
14923;SDS011;7554;43.600;1.480;2023-12-20T04:19:05;16.17;;;14.00;;
14923;SDS011;7554;43.600;1.480;2023-12-20T04:21:32;18.23;;;14.57;;
14923;SDS011;7554;43.600;1.480;2023-12-20T04:24:01;17.63;;;14.33;;
14923;SDS011;7554;43.600;1.480;2023-12-20T04:26:28;17.00;;;14.97;;
14923;SDS011;7554;43.600;1.480;2023-12-20T04:28:55;17.97;;;15.43;;
14923;SDS011;7554;43.600;1.480;2023-12-20T04:31:23;20.17;;;15.67;;
14923;SDS011;7554;43.600;1.480;2023-12-20T04:33:50;21.23;;;16.27;;
14923;SDS011;7554;43.600;1.480;2023-12-20T04:36:17;20.00;;;16.60;;
14923;SDS011;7554;43.600;1.480;2023-12-20T04:38:45;21.20;;;17.20;;
14923;SDS011;7554;43.600;1.480;2023-12-20T04:41:14;21.90;;;15.63;;
14923;SDS011;7554;43.600;1.480;2023-12-20T04:43:43;20.47;;;15.93;;
14923;SDS011;7554;43.600;1.480;2023-12-20T04:46:11;18.03;;;15.83;;
14923;SDS011;7554;43.600;1.480;2023-12-20T04:48:38;22.33;;;16.17;;
14923;SDS011;7554;43.600;1.480;2023-12-20T04:51:06;23.43;;;16.27;;
14923;SDS011;7554;43.600;1.480;2023-12-20T04:53:33;21.33;;;15.97;;
14923;SDS011;7554;43.600;1.480;2023-12-20T04:56:01;22.80;;;16.60;;
14923;SDS011;7554;43.600;1.480;2023-12-20T04:58:29;19.53;;;15.80;;
14923;SDS011;7554;43.600;1.480;2023-12-20T05:00:57;18.23;;;15.70;;
14923;SDS011;7554;43.600;1.480;2023-12-20T05:03:24;19.90;;;16.43;;
14923;SDS011;7554;43.600;1.480;2023-12-20T05:05:51;19.30;;;16.00;;
14923;SDS011;7554;43.600;1.480;2023-12-20T05:08:18;18.53;;;15.00;;
14923;SDS011;7554;43.600;1.480;2023-12-20T05:10:46;19.60;;;14.97;;
14923;SDS011;7554;43.600;1.480;2023-12-20T05:13:13;18.70;;;15.57;;
14923;SDS011;7554;43.600;1.480;2023-12-20T05:15:42;19.37;;;15.27;;
14923;SDS011;7554;43.600;1.480;2023-12-20T05:18:09;19.13;;;15.23;;
14923;SDS011;7554;43.600;1.480;2023-12-20T05:20:37;18.37;;;14.73;;
14923;SDS011;7554;43.600;1.480;2023-12-20T05:23:04;24.53;;;16.47;;
14923;SDS011;7554;43.600;1.480;2023-12-20T05:25:31;18.33;;;14.83;;
14923;SDS011;7554;43.600;1.480;2023-12-20T05:27:59;15.93;;;12.50;;
14923;SDS011;7554;43.600;1.480;2023-12-20T05:30:27;14.67;;;11.57;;
14923;SDS011;7554;43.600;1.480;2023-12-20T05:32:56;13.47;;;11.43;;
14923;SDS011;7554;43.600;1.480;2023-12-20T05:35:23;17.80;;;11.33;;
14923;SDS011;7554;43.600;1.480;2023-12-20T05:37:51;13.33;;;9.43;;
14923;SDS011;7554;43.600;1.480;2023-12-20T05:40:18;13.30;;;9.23;;
14923;SDS011;7554;43.600;1.480;2023-12-20T05:42:46;11.37;;;8.97;;
14923;SDS011;7554;43.600;1.480;2023-12-20T05:45:14;12.50;;;8.80;;
14923;SDS011;7554;43.600;1.480;2023-12-20T05:47:41;11.73;;;8.50;;
14923;SDS011;7554;43.600;1.480;2023-12-20T05:50:10;9.20;;;8.03;;
14923;SDS011;7554;43.600;1.480;2023-12-20T05:52:38;12.00;;;8.47;;
14923;SDS011;7554;43.600;1.480;2023-12-20T05:55:06;11.80;;;7.90;;
14923;SDS011;7554;43.600;1.480;2023-12-20T05:57:34;9.83;;;7.47;;
14923;SDS011;7554;43.600;1.480;2023-12-20T06:00:01;14.27;;;7.90;;
14923;SDS011;7554;43.600;1.480;2023-12-20T06:02:29;10.30;;;7.43;;
14923;SDS011;7554;43.600;1.480;2023-12-20T06:04:56;12.13;;;7.83;;
14923;SDS011;7554;43.600;1.480;2023-12-20T06:07:25;15.73;;;7.77;;
14923;SDS011;7554;43.600;1.480;2023-12-20T06:09:52;10.27;;;7.27;;
14923;SDS011;7554;43.600;1.480;2023-12-20T06:12:20;10.57;;;7.43;;
14923;SDS011;7554;43.600;1.480;2023-12-20T06:14:47;8.47;;;5.83;;
14923;SDS011;7554;43.600;1.480;2023-12-20T06:17:14;10.07;;;6.67;;
14923;SDS011;7554;43.600;1.480;2023-12-20T06:19:42;8.73;;;5.87;;
14923;SDS011;7554;43.600;1.480;2023-12-20T06:22:10;8.47;;;6.50;;
14923;SDS011;7554;43.600;1.480;2023-12-20T06:24:38;8.33;;;6.43;;
14923;SDS011;7554;43.600;1.480;2023-12-20T06:27:06;8.53;;;6.43;;
14923;SDS011;7554;43.600;1.480;2023-12-20T06:29:33;9.70;;;6.87;;
14923;SDS011;7554;43.600;1.480;2023-12-20T06:32:01;9.50;;;7.00;;
14923;SDS011;7554;43.600;1.480;2023-12-20T06:34:28;10.17;;;6.40;;
14923;SDS011;7554;43.600;1.480;2023-12-20T06:36:55;11.37;;;7.27;;
14923;SDS011;7554;43.600;1.480;2023-12-20T06:39:23;9.17;;;7.07;;
14923;SDS011;7554;43.600;1.480;2023-12-20T06:41:51;9.93;;;6.93;;
14923;SDS011;7554;43.600;1.480;2023-12-20T06:44:19;9.17;;;7.33;;
14923;SDS011;7554;43.600;1.480;2023-12-20T06:46:46;10.10;;;7.27;;
14923;SDS011;7554;43.600;1.480;2023-12-20T06:49:13;8.47;;;5.90;;
14923;SDS011;7554;43.600;1.480;2023-12-20T06:51:40;7.37;;;5.70;;
14923;SDS011;7554;43.600;1.480;2023-12-20T06:54:08;8.03;;;5.50;;
14923;SDS011;7554;43.600;1.480;2023-12-20T06:56:35;9.27;;;5.60;;
14923;SDS011;7554;43.600;1.480;2023-12-20T06:59:04;7.30;;;5.20;;
14923;SDS011;7554;43.600;1.480;2023-12-20T07:01:31;7.43;;;5.33;;
14923;SDS011;7554;43.600;1.480;2023-12-20T07:03:59;6.80;;;4.40;;
14923;SDS011;7554;43.600;1.480;2023-12-20T07:06:26;6.67;;;4.90;;
14923;SDS011;7554;43.600;1.480;2023-12-20T07:08:53;4.37;;;3.60;;
14923;SDS011;7554;43.600;1.480;2023-12-20T07:11:20;6.00;;;3.37;;
14923;SDS011;7554;43.600;1.480;2023-12-20T07:13:48;4.90;;;3.53;;
14923;SDS011;7554;43.600;1.480;2023-12-20T07:16:17;5.10;;;3.63;;
14923;SDS011;7554;43.600;1.480;2023-12-20T07:18:44;8.57;;;4.77;;
14923;SDS011;7554;43.600;1.480;2023-12-20T07:21:12;5.47;;;3.93;;
14923;SDS011;7554;43.600;1.480;2023-12-20T07:23:39;5.90;;;4.17;;
14923;SDS011;7554;43.600;1.480;2023-12-20T07:26:07;5.87;;;4.33;;
14923;SDS011;7554;43.600;1.480;2023-12-20T07:28:34;6.10;;;4.70;;
14923;SDS011;7554;43.600;1.480;2023-12-20T07:31:01;5.87;;;4.13;;
14923;SDS011;7554;43.600;1.480;2023-12-20T07:33:30;5.20;;;3.80;;
14923;SDS011;7554;43.600;1.480;2023-12-20T07:35:58;6.13;;;4.10;;
14923;SDS011;7554;43.600;1.480;2023-12-20T07:38:26;6.23;;;4.10;;
14923;SDS011;7554;43.600;1.480;2023-12-20T07:40:53;5.40;;;4.20;;
14923;SDS011;7554;43.600;1.480;2023-12-20T07:43:20;7.10;;;4.83;;
14923;SDS011;7554;43.600;1.480;2023-12-20T07:45:48;5.27;;;4.20;;
14923;SDS011;7554;43.600;1.480;2023-12-20T07:48:15;6.17;;;5.00;;
14923;SDS011;7554;43.600;1.480;2023-12-20T07:50:46;6.23;;;4.77;;
14923;SDS011;7554;43.600;1.480;2023-12-20T07:53:13;5.30;;;4.70;;
14923;SDS011;7554;43.600;1.480;2023-12-20T07:55:41;5.70;;;4.83;;
14923;SDS011;7554;43.600;1.480;2023-12-20T07:58:08;8.27;;;5.10;;
14923;SDS011;7554;43.600;1.480;2023-12-20T08:00:35;10.13;;;5.13;;
14923;SDS011;7554;43.600;1.480;2023-12-20T08:03:03;5.83;;;5.00;;
14923;SDS011;7554;43.600;1.480;2023-12-20T08:05:31;5.97;;;5.07;;
14923;SDS011;7554;43.600;1.480;2023-12-20T08:10:54;13.20;;;5.70;;
14923;SDS011;7554;43.600;1.480;2023-12-20T08:13:23;5.40;;;4.60;;
14923;SDS011;7554;43.600;1.480;2023-12-20T08:15:56;5.50;;;4.40;;
14923;SDS011;7554;43.600;1.480;2023-12-20T08:18:28;5.87;;;4.43;;
14923;SDS011;7554;43.600;1.480;2023-12-20T08:20:55;5.27;;;4.03;;
14923;SDS011;7554;43.600;1.480;2023-12-20T08:23:35;7.00;;;4.13;;
14923;SDS011;7554;43.600;1.480;2023-12-20T08:26:03;7.60;;;4.70;;
14923;SDS011;7554;43.600;1.480;2023-12-20T08:28:31;5.73;;;4.40;;
14923;SDS011;7554;43.600;1.480;2023-12-20T08:30:58;5.10;;;4.13;;
14923;SDS011;7554;43.600;1.480;2023-12-20T08:33:26;7.13;;;4.37;;
14923;SDS011;7554;43.600;1.480;2023-12-20T08:35:53;10.60;;;4.33;;
14923;SDS011;7554;43.600;1.480;2023-12-20T08:38:21;5.23;;;4.17;;
14923;SDS011;7554;43.600;1.480;2023-12-20T08:40:50;7.30;;;4.33;;
14923;SDS011;7554;43.600;1.480;2023-12-20T08:43:17;7.87;;;5.07;;
14923;SDS011;7554;43.600;1.480;2023-12-20T08:45:44;6.63;;;4.63;;
14923;SDS011;7554;43.600;1.480;2023-12-20T08:48:12;9.10;;;5.00;;
14923;SDS011;7554;43.600;1.480;2023-12-20T08:50:39;8.10;;;5.33;;
14923;SDS011;7554;43.600;1.480;2023-12-20T08:53:06;8.17;;;4.77;;
14923;SDS011;7554;43.600;1.480;2023-12-20T08:55:34;5.70;;;4.47;;
14923;SDS011;7554;43.600;1.480;2023-12-20T08:58:02;7.80;;;3.97;;
14923;SDS011;7554;43.600;1.480;2023-12-20T09:00:32;5.90;;;4.40;;
14923;SDS011;7554;43.600;1.480;2023-12-20T09:02:59;7.50;;;4.90;;
14923;SDS011;7554;43.600;1.480;2023-12-20T09:05:26;7.30;;;4.63;;
14923;SDS011;7554;43.600;1.480;2023-12-20T09:07:53;9.10;;;4.30;;
14923;SDS011;7554;43.600;1.480;2023-12-20T09:10:21;8.63;;;4.47;;
14923;SDS011;7554;43.600;1.480;2023-12-20T09:12:48;10.40;;;4.70;;
14923;SDS011;7554;43.600;1.480;2023-12-20T09:15:17;8.93;;;4.90;;
14923;SDS011;7554;43.600;1.480;2023-12-20T09:17:44;6.87;;;4.93;;
14923;SDS011;7554;43.600;1.480;2023-12-20T09:20:12;7.83;;;6.50;;
14923;SDS011;7554;43.600;1.480;2023-12-20T09:22:39;11.70;;;6.13;;
14923;SDS011;7554;43.600;1.480;2023-12-20T09:25:08;9.87;;;5.70;;
14923;SDS011;7554;43.600;1.480;2023-12-20T09:27:37;9.30;;;6.80;;
14923;SDS011;7554;43.600;1.480;2023-12-20T09:30:05;12.67;;;9.40;;
14923;SDS011;7554;43.600;1.480;2023-12-20T09:32:34;15.20;;;10.23;;
14923;SDS011;7554;43.600;1.480;2023-12-20T09:35:02;12.47;;;9.53;;
14923;SDS011;7554;43.600;1.480;2023-12-20T09:37:30;18.13;;;10.37;;
14923;SDS011;7554;43.600;1.480;2023-12-20T09:39:58;9.63;;;6.87;;
14923;SDS011;7554;43.600;1.480;2023-12-20T09:42:29;10.47;;;5.40;;
14923;SDS011;7554;43.600;1.480;2023-12-20T09:45:08;7.23;;;4.40;;
14923;SDS011;7554;43.600;1.480;2023-12-20T09:47:40;9.37;;;4.27;;
14923;SDS011;7554;43.600;1.480;2023-12-20T09:50:09;7.57;;;4.17;;
14923;SDS011;7554;43.600;1.480;2023-12-20T09:52:37;7.67;;;3.23;;
14923;SDS011;7554;43.600;1.480;2023-12-20T09:55:06;7.50;;;3.20;;
14923;SDS011;7554;43.600;1.480;2023-12-20T09:57:34;18.87;;;5.10;;
14923;SDS011;7554;43.600;1.480;2023-12-20T10:00:02;6.10;;;2.83;;
14923;SDS011;7554;43.600;1.480;2023-12-20T10:02:32;6.30;;;2.47;;
14923;SDS011;7554;43.600;1.480;2023-12-20T10:05:02;3.87;;;2.17;;
14923;SDS011;7554;43.600;1.480;2023-12-20T10:07:34;4.83;;;1.87;;
14923;SDS011;7554;43.600;1.480;2023-12-20T10:10:02;3.63;;;1.80;;
14923;SDS011;7554;43.600;1.480;2023-12-20T10:12:30;6.43;;;1.80;;
14923;SDS011;7554;43.600;1.480;2023-12-20T10:14:57;7.43;;;2.70;;
14923;SDS011;7554;43.600;1.480;2023-12-20T10:17:25;6.17;;;2.00;;
14923;SDS011;7554;43.600;1.480;2023-12-20T10:19:55;5.33;;;2.30;;
14923;SDS011;7554;43.600;1.480;2023-12-20T10:22:24;5.20;;;1.80;;
14923;SDS011;7554;43.600;1.480;2023-12-20T10:24:53;6.87;;;2.30;;
14923;SDS011;7554;43.600;1.480;2023-12-20T10:27:23;5.17;;;2.23;;
14923;SDS011;7554;43.600;1.480;2023-12-20T10:29:50;6.83;;;2.27;;
14923;SDS011;7554;43.600;1.480;2023-12-20T10:32:21;3.53;;;1.80;;
14923;SDS011;7554;43.600;1.480;2023-12-20T10:34:50;5.03;;;1.97;;
14923;SDS011;7554;43.600;1.480;2023-12-20T10:37:17;4.03;;;2.10;;
14923;SDS011;7554;43.600;1.480;2023-12-20T10:39:47;3.73;;;2.20;;
14923;SDS011;7554;43.600;1.480;2023-12-20T10:42:17;3.33;;;1.83;;
14923;SDS011;7554;43.600;1.480;2023-12-20T10:44:46;5.37;;;1.80;;
14923;SDS011;7554;43.600;1.480;2023-12-20T10:47:14;6.50;;;2.10;;
14923;SDS011;7554;43.600;1.480;2023-12-20T10:49:41;9.60;;;2.27;;
14923;SDS011;7554;43.600;1.480;2023-12-20T10:52:09;4.97;;;2.10;;
14923;SDS011;7554;43.600;1.480;2023-12-20T10:54:38;3.17;;;1.20;;
14923;SDS011;7554;43.600;1.480;2023-12-20T10:57:08;4.30;;;1.60;;
14923;SDS011;7554;43.600;1.480;2023-12-20T10:59:36;4.73;;;1.50;;
14923;SDS011;7554;43.600;1.480;2023-12-20T11:02:03;1.93;;;1.40;;
14923;SDS011;7554;43.600;1.480;2023-12-20T11:04:35;5.33;;;1.50;;
14923;SDS011;7554;43.600;1.480;2023-12-20T11:07:15;3.00;;;1.40;;
14923;SDS011;7554;43.600;1.480;2023-12-20T11:09:49;1.73;;;1.00;;
14923;SDS011;7554;43.600;1.480;2023-12-20T11:12:28;2.30;;;1.10;;
14923;SDS011;7554;43.600;1.480;2023-12-20T11:15:05;5.77;;;1.60;;
14923;SDS011;7554;43.600;1.480;2023-12-20T11:17:33;3.63;;;1.70;;
14923;SDS011;7554;43.600;1.480;2023-12-20T11:20:04;5.90;;;1.53;;
14923;SDS011;7554;43.600;1.480;2023-12-20T11:22:35;6.30;;;1.40;;
14923;SDS011;7554;43.600;1.480;2023-12-20T11:25:04;6.17;;;1.60;;
14923;SDS011;7554;43.600;1.480;2023-12-20T11:27:35;3.97;;;1.50;;
14923;SDS011;7554;43.600;1.480;2023-12-20T11:30:03;5.03;;;1.23;;
14923;SDS011;7554;43.600;1.480;2023-12-20T11:32:33;6.57;;;1.60;;
14923;SDS011;7554;43.600;1.480;2023-12-20T11:35:17;4.97;;;1.23;;
14923;SDS011;7554;43.600;1.480;2023-12-20T11:37:46;5.77;;;1.57;;
14923;SDS011;7554;43.600;1.480;2023-12-20T11:40:14;5.00;;;1.20;;
14923;SDS011;7554;43.600;1.480;2023-12-20T11:42:44;7.10;;;1.40;;
14923;SDS011;7554;43.600;1.480;2023-12-20T11:45:15;2.93;;;1.30;;
14923;SDS011;7554;43.600;1.480;2023-12-20T11:47:45;5.77;;;1.60;;
14923;SDS011;7554;43.600;1.480;2023-12-20T11:50:15;5.33;;;2.23;;
14923;SDS011;7554;43.600;1.480;2023-12-20T11:52:42;4.70;;;2.00;;
14923;SDS011;7554;43.600;1.480;2023-12-20T11:55:09;6.53;;;1.40;;
14923;SDS011;7554;43.600;1.480;2023-12-20T11:57:37;5.83;;;1.57;;
14923;SDS011;7554;43.600;1.480;2023-12-20T12:00:07;4.87;;;1.20;;
14923;SDS011;7554;43.600;1.480;2023-12-20T12:02:35;4.07;;;1.13;;
14923;SDS011;7554;43.600;1.480;2023-12-20T12:05:02;4.03;;;0.90;;
14923;SDS011;7554;43.600;1.480;2023-12-20T12:07:31;4.87;;;1.23;;
14923;SDS011;7554;43.600;1.480;2023-12-20T12:10:00;3.90;;;1.23;;
14923;SDS011;7554;43.600;1.480;2023-12-20T12:12:28;3.27;;;0.87;;
14923;SDS011;7554;43.600;1.480;2023-12-20T12:14:57;3.80;;;1.37;;
14923;SDS011;7554;43.600;1.480;2023-12-20T12:17:27;8.03;;;1.60;;
14923;SDS011;7554;43.600;1.480;2023-12-20T12:20:01;5.27;;;1.63;;
14923;SDS011;7554;43.600;1.480;2023-12-20T12:22:30;6.27;;;1.37;;
14923;SDS011;7554;43.600;1.480;2023-12-20T12:24:58;7.33;;;1.83;;
14923;SDS011;7554;43.600;1.480;2023-12-20T12:27:35;4.97;;;1.60;;
14923;SDS011;7554;43.600;1.480;2023-12-20T12:30:04;4.23;;;1.30;;
14923;SDS011;7554;43.600;1.480;2023-12-20T12:32:35;2.67;;;1.13;;
14923;SDS011;7554;43.600;1.480;2023-12-20T12:35:03;4.37;;;1.23;;
14923;SDS011;7554;43.600;1.480;2023-12-20T12:37:31;6.50;;;1.23;;
14923;SDS011;7554;43.600;1.480;2023-12-20T12:40:01;4.23;;;1.60;;
14923;SDS011;7554;43.600;1.480;2023-12-20T12:42:31;7.90;;;1.63;;
14923;SDS011;7554;43.600;1.480;2023-12-20T12:44:59;5.47;;;1.60;;
14923;SDS011;7554;43.600;1.480;2023-12-20T12:47:26;7.80;;;1.70;;
14923;SDS011;7554;43.600;1.480;2023-12-20T12:49:55;7.70;;;1.20;;
14923;SDS011;7554;43.600;1.480;2023-12-20T12:52:22;4.33;;;0.90;;
14923;SDS011;7554;43.600;1.480;2023-12-20T12:54:50;6.90;;;1.20;;
14923;SDS011;7554;43.600;1.480;2023-12-20T12:57:17;4.47;;;1.47;;
14923;SDS011;7554;43.600;1.480;2023-12-20T12:59:44;5.67;;;1.20;;
14923;SDS011;7554;43.600;1.480;2023-12-20T13:02:12;8.17;;;1.37;;
14923;SDS011;7554;43.600;1.480;2023-12-20T13:04:40;4.07;;;1.23;;
14923;SDS011;7554;43.600;1.480;2023-12-20T13:07:09;3.33;;;1.00;;
14923;SDS011;7554;43.600;1.480;2023-12-20T13:09:37;10.67;;;1.70;;
14923;SDS011;7554;43.600;1.480;2023-12-20T13:12:05;7.53;;;1.63;;
14923;SDS011;7554;43.600;1.480;2023-12-20T13:14:33;5.57;;;2.33;;
14923;SDS011;7554;43.600;1.480;2023-12-20T13:17:02;4.17;;;1.30;;
14923;SDS011;7554;43.600;1.480;2023-12-20T13:19:31;4.63;;;1.20;;
14923;SDS011;7554;43.600;1.480;2023-12-20T13:21:58;6.40;;;1.73;;
14923;SDS011;7554;43.600;1.480;2023-12-20T13:24:27;7.83;;;1.37;;
14923;SDS011;7554;43.600;1.480;2023-12-20T13:26:55;4.10;;;1.10;;
14923;SDS011;7554;43.600;1.480;2023-12-20T13:29:22;3.83;;;1.10;;
14923;SDS011;7554;43.600;1.480;2023-12-20T13:31:52;6.53;;;1.17;;
14923;SDS011;7554;43.600;1.480;2023-12-20T13:34:20;5.60;;;1.50;;
14923;SDS011;7554;43.600;1.480;2023-12-20T13:36:47;5.83;;;1.33;;
14923;SDS011;7554;43.600;1.480;2023-12-20T13:39:16;5.13;;;1.10;;
14923;SDS011;7554;43.600;1.480;2023-12-20T13:41:44;6.57;;;1.20;;
14923;SDS011;7554;43.600;1.480;2023-12-20T13:44:12;9.20;;;1.93;;
14923;SDS011;7554;43.600;1.480;2023-12-20T13:46:39;4.73;;;1.53;;
14923;SDS011;7554;43.600;1.480;2023-12-20T13:49:07;6.43;;;1.20;;
14923;SDS011;7554;43.600;1.480;2023-12-20T13:51:34;6.77;;;1.30;;
14923;SDS011;7554;43.600;1.480;2023-12-20T13:54:02;4.03;;;1.30;;
14923;SDS011;7554;43.600;1.480;2023-12-20T13:56:29;5.13;;;1.10;;
14923;SDS011;7554;43.600;1.480;2023-12-20T13:58:59;6.07;;;1.23;;
14923;SDS011;7554;43.600;1.480;2023-12-20T14:01:27;6.57;;;1.60;;
14923;SDS011;7554;43.600;1.480;2023-12-20T14:03:54;6.53;;;1.40;;
14923;SDS011;7554;43.600;1.480;2023-12-20T14:06:22;4.57;;;1.57;;
14923;SDS011;7554;43.600;1.480;2023-12-20T14:08:49;4.83;;;1.60;;
14923;SDS011;7554;43.600;1.480;2023-12-20T14:11:16;4.70;;;1.90;;
14923;SDS011;7554;43.600;1.480;2023-12-20T14:13:44;8.33;;;2.40;;
14923;SDS011;7554;43.600;1.480;2023-12-20T14:16:13;7.57;;;1.40;;
14923;SDS011;7554;43.600;1.480;2023-12-20T14:18:41;4.53;;;1.40;;
14923;SDS011;7554;43.600;1.480;2023-12-20T14:21:09;3.90;;;1.63;;
14923;SDS011;7554;43.600;1.480;2023-12-20T14:23:36;7.67;;;1.90;;
14923;SDS011;7554;43.600;1.480;2023-12-20T14:26:04;8.67;;;1.70;;
14923;SDS011;7554;43.600;1.480;2023-12-20T14:28:31;9.07;;;2.23;;
14923;SDS011;7554;43.600;1.480;2023-12-20T14:30:58;4.93;;;1.50;;
14923;SDS011;7554;43.600;1.480;2023-12-20T14:33:27;10.77;;;2.00;;
14923;SDS011;7554;43.600;1.480;2023-12-20T14:35:55;7.27;;;1.70;;
14923;SDS011;7554;43.600;1.480;2023-12-20T14:38:22;7.23;;;1.70;;
14923;SDS011;7554;43.600;1.480;2023-12-20T14:40:50;4.00;;;1.50;;
14923;SDS011;7554;43.600;1.480;2023-12-20T14:43:19;8.83;;;1.93;;
14923;SDS011;7554;43.600;1.480;2023-12-20T14:45:47;7.27;;;2.10;;
14923;SDS011;7554;43.600;1.480;2023-12-20T14:48:16;4.93;;;1.70;;
14923;SDS011;7554;43.600;1.480;2023-12-20T14:50:45;4.83;;;1.40;;
14923;SDS011;7554;43.600;1.480;2023-12-20T14:53:13;7.43;;;1.77;;
14923;SDS011;7554;43.600;1.480;2023-12-20T14:55:41;9.63;;;1.93;;
14923;SDS011;7554;43.600;1.480;2023-12-20T14:58:09;6.60;;;1.80;;